Time;durP1;ratioP1;P1;durP2;ratioP2;P2;SDS_P1;SDS_P2;PMS_P1;PMS_P2;Temp;Humidity;BMP_temperature;BMP_pressure;BME280_temperature;BME280_humidity;BME280_pressure;Samples;Min_cycle;Max_cycle;Signal;HPM_P1;HPM_P2
2023/06/03 00:01:07;;;;;;;8.23;4.25;;;;;;;-148.23;100.00;56998.88;5055430;28;20052;-60
2023/06/03 00:03:34;;;;;;;5.95;4.22;;;;;;;-148.23;100.00;56998.88;5055368;28;20045;-60
2023/06/03 00:06:03;;;;;;;5.57;4.45;;;;;;;-148.23;100.00;56998.88;5055346;28;20052;-62
2023/06/03 00:08:30;;;;;;;5.80;3.92;;;;;;;-148.23;100.00;56998.88;5055401;28;20045;-61
2023/06/03 00:10:57;;;;;;;7.50;4.80;;;;;;;-148.23;100.00;56998.88;5055411;28;20415;-60
2023/06/03 00:13:24;;;;;;;6.57;5.00;;;;;;;-148.23;100.00;56998.88;5055331;28;20395;-60
2023/06/03 00:15:51;;;;;;;11.48;4.15;;;;;;;-148.23;100.00;56998.88;5055422;28;20128;-60
2023/06/03 00:18:18;;;;;;;7.18;4.30;;;;;;;-148.23;100.00;56998.88;5055211;28;20102;-61
2023/06/03 00:20:47;;;;;;;12.57;5.07;;;;;;;-148.23;100.00;56998.88;5055199;28;20049;-60
2023/06/03 00:23:16;;;;;;;8.25;5.18;;;;;;;-148.23;100.00;56998.88;5055117;28;20041;-61
2023/06/03 00:25:44;;;;;;;8.00;4.38;;;;;;;-148.23;100.00;56998.88;5055068;28;20132;-60
2023/06/03 00:28:11;;;;;;;7.82;4.43;;;;;;;-148.23;100.00;56998.88;5054913;28;20449;-61
2023/06/03 00:30:38;;;;;;;6.90;4.55;;;;;;;-148.23;100.00;56998.88;5054995;28;20045;-60
2023/06/03 00:33:05;;;;;;;11.38;4.22;;;;;;;-148.23;100.00;56998.88;5055037;28;20049;-60
2023/06/03 00:35:34;;;;;;;6.93;4.65;;;;;;;-148.23;100.00;56998.88;5054853;28;20106;-61
2023/06/03 00:38:01;;;;;;;4.82;4.05;;;;;;;-148.23;100.00;56998.88;5054845;28;20052;-61
2023/06/03 00:40:30;;;;;;;9.55;4.70;;;;;;;-148.23;100.00;56998.88;5054718;28;20041;-60
2023/06/03 00:42:57;;;;;;;6.55;4.75;;;;;;;-148.23;100.00;56998.88;5054840;28;20092;-60
2023/06/03 00:45:24;;;;;;;8.55;4.88;;;;;;;-148.23;100.00;56998.88;5054938;28;20057;-60
2023/06/03 00:47:52;;;;;;;10.48;5.07;;;;;;;-148.23;100.00;56998.88;5054673;28;20056;-60
2023/06/03 00:50:19;;;;;;;9.40;5.00;;;;;;;-148.23;100.00;56998.88;5054558;28;20139;-60
2023/06/03 00:52:47;;;;;;;8.07;4.53;;;;;;;-148.23;100.00;56998.88;5054619;28;20048;-60
2023/06/03 00:55:15;;;;;;;7.00;4.85;;;;;;;-148.23;100.00;56998.88;5054535;28;20049;-60
2023/06/03 00:57:43;;;;;;;10.50;4.53;;;;;;;-148.23;100.00;56998.88;5054531;28;20484;-60
2023/06/03 01:00:11;;;;;;;5.80;4.20;;;;;;;-148.23;100.00;56998.88;5054215;28;20045;-60
2023/06/03 01:02:43;;;;;;;9.15;4.93;;;;;;;-148.23;100.00;56998.88;5054503;28;20446;-60
2023/06/03 01:05:11;;;;;;;7.47;5.00;;;;;;;-148.23;100.00;56998.88;5054220;28;20053;-59
2023/06/03 01:07:47;;;;;;;5.05;4.20;;;;;;;-148.23;100.00;56998.88;5054348;28;20123;-59
2023/06/03 01:10:22;;;;;;;10.40;4.80;;;;;;;-148.23;100.00;56998.88;5054234;28;20056;-59
2023/06/03 01:12:59;;;;;;;5.32;4.47;;;;;;;-148.23;100.00;56998.88;5054131;28;20049;-60
2023/06/03 01:15:28;;;;;;;9.50;5.28;;;;;;;-148.23;100.00;56998.88;5054039;28;20048;-60
2023/06/03 01:17:59;;;;;;;5.53;4.75;;;;;;;-148.23;100.00;56998.88;5054421;28;20044;-61
2023/06/03 01:20:28;;;;;;;9.30;4.25;;;;;;;-148.23;100.00;56998.88;5054315;28;20490;-60
2023/06/03 01:23:03;;;;;;;9.35;4.60;;;;;;;-148.23;100.00;56998.88;5053922;28;20049;-60
2023/06/03 01:25:32;;;;;;;8.43;5.00;;;;;;;-148.23;100.00;56998.88;5053852;28;20148;-60
2023/06/03 01:27:58;;;;;;;6.63;4.32;;;;;;;-148.23;100.00;56998.88;5053932;28;20463;-60
2023/06/03 01:30:26;;;;;;;13.80;4.82;;;;;;;-148.23;100.00;56998.88;5054025;28;20487;-61
2023/06/03 01:32:54;;;;;;;7.35;4.32;;;;;;;-148.23;100.00;56998.88;5053862;28;20076;-60
2023/06/03 01:35:22;;;;;;;5.68;4.43;;;;;;;-148.23;100.00;56998.88;5053771;28;20092;-61
2023/06/03 01:37:49;;;;;;;12.52;4.70;;;;;;;-148.23;100.00;56998.88;5053695;28;20045;-60
2023/06/03 01:40:17;;;;;;;4.82;4.32;;;;;;;-148.23;100.00;56998.88;5053726;28;20049;-60
2023/06/03 01:42:46;;;;;;;7.18;4.55;;;;;;;-148.23;100.00;56998.88;5053788;28;20507;-61
2023/06/03 01:45:13;;;;;;;6.38;4.63;;;;;;;-148.23;100.00;56998.88;5053461;28;20048;-60
2023/06/03 01:47:40;;;;;;;11.30;5.25;;;;;;;-148.23;100.00;56998.88;5053755;28;20055;-61
2023/06/03 01:50:08;;;;;;;5.78;4.10;;;;;;;-148.23;100.00;56998.88;5053499;28;20490;-61
2023/06/03 01:52:35;;;;;;;9.57;4.70;;;;;;;-148.23;100.00;56998.88;5053508;28;20132;-60
2023/06/03 01:55:02;;;;;;;7.25;5.20;;;;;;;-148.23;100.00;56998.88;5053575;28;20080;-60
2023/06/03 01:57:29;;;;;;;6.53;4.60;;;;;;;-148.23;100.00;56998.88;5053309;28;20055;-60
2023/06/03 01:59:58;;;;;;;6.05;4.50;;;;;;;-148.23;100.00;56998.88;5053300;28;20135;-61
2023/06/03 02:02:25;;;;;;;9.30;4.88;;;;;;;-148.23;100.00;56998.88;5053226;28;20049;-60
2023/06/03 02:04:56;;;;;;;6.57;4.90;;;;;;;-148.23;100.00;56998.88;5053164;28;20130;-61
2023/06/03 02:07:25;;;;;;;8.43;4.55;;;;;;;-148.23;100.00;56998.88;5053444;28;20060;-61
2023/06/03 02:09:53;;;;;;;6.38;4.55;;;;;;;-148.23;100.00;56998.88;5053416;28;20124;-61
2023/06/03 02:12:20;;;;;;;6.85;3.97;;;;;;;-148.23;100.00;56998.88;5052555;28;20049;-61
2023/06/03 02:14:47;;;;;;;7.43;4.63;;;;;;;-148.23;100.00;56998.88;5053352;28;20086;-60
2023/06/03 02:17:16;;;;;;;12.05;4.93;;;;;;;-148.23;100.00;56998.88;5053231;28;20091;-60
2023/06/03 02:19:44;;;;;;;7.82;4.95;;;;;;;-148.23;100.00;56998.88;5053212;28;20135;-60
2023/06/03 02:22:13;;;;;;;5.05;4.43;;;;;;;-148.23;100.00;56998.88;5052991;28;20476;-61
2023/06/03 02:24:39;;;;;;;8.93;5.03;;;;;;;-148.23;100.00;56998.88;5053044;28;20053;-61
2023/06/03 02:27:09;;;;;;;9.70;4.53;;;;;;;-148.23;100.00;56998.88;5053070;28;20083;-60
2023/06/03 02:29:36;;;;;;;7.60;4.80;;;;;;;-148.23;100.00;56998.88;5053140;28;20081;-60
2023/06/03 02:32:03;;;;;;;8.10;4.55;;;;;;;-148.23;100.00;56998.88;5052979;28;20077;-59
2023/06/03 02:34:32;;;;;;;7.43;4.72;;;;;;;-148.23;100.00;56998.88;5052927;28;20080;-60
2023/06/03 02:36:59;;;;;;;7.55;4.75;;;;;;;-148.23;100.00;56998.88;5052872;28;20110;-61
2023/06/03 02:39:26;;;;;;;8.38;4.32;;;;;;;-148.23;100.00;56998.88;5052825;28;20045;-60
2023/06/03 02:41:53;;;;;;;5.88;4.55;;;;;;;-148.23;100.00;56998.88;5052897;28;20503;-60
2023/06/03 02:44:20;;;;;;;8.45;4.18;;;;;;;-148.23;100.00;56998.88;5052854;28;20128;-60
2023/06/03 02:46:47;;;;;;;10.68;4.60;;;;;;;-148.23;100.00;56998.88;5052662;28;20053;-60
2023/06/03 02:49:14;;;;;;;6.90;4.75;;;;;;;-148.23;100.00;56998.88;5052745;28;20554;-61
2023/06/03 02:51:43;;;;;;;11.02;5.40;;;;;;;-148.23;100.00;56998.88;5052791;28;20049;-61
2023/06/03 02:54:10;;;;;;;6.60;4.85;;;;;;;-148.23;100.00;56998.88;5052762;28;20045;-60
2023/06/03 02:56:37;;;;;;;6.25;4.00;;;;;;;-148.23;100.00;56998.88;5052702;28;20044;-60
2023/06/03 02:59:05;;;;;;;7.95;4.90;;;;;;;-148.23;100.00;56998.88;5052626;28;20076;-60
2023/06/03 03:01:32;;;;;;;7.30;4.50;;;;;;;-148.23;100.00;56998.88;5052701;28;20049;-60
2023/06/03 03:04:00;;;;;;;11.23;5.68;;;;;;;-148.23;100.00;56998.88;5052725;28;20398;-60
2023/06/03 03:06:27;;;;;;;9.02;4.50;;;;;;;-148.23;100.00;56998.88;5052823;28;20578;-61
2023/06/03 03:08:55;;;;;;;5.22;4.72;;;;;;;-148.23;100.00;56998.88;5052979;28;20045;-61
2023/06/03 03:11:22;;;;;;;5.82;4.90;;;;;;;-148.23;100.00;56998.88;5052528;28;20438;-60
2023/06/03 03:13:49;;;;;;;6.22;4.97;;;;;;;-148.23;100.00;56998.88;5052678;28;20071;-60
2023/06/03 03:16:17;;;;;;;7.78;4.57;;;;;;;-148.23;100.00;56998.88;5052525;28;20053;-60
2023/06/03 03:18:44;;;;;;;8.27;5.95;;;;;;;-148.23;100.00;56998.88;5052641;28;20055;-60
2023/06/03 03:21:11;;;;;;;5.45;4.60;;;;;;;-148.23;100.00;56998.88;5052867;28;20049;-60
2023/06/03 03:23:38;;;;;;;7.32;5.00;;;;;;;-148.23;100.00;56998.88;5053171;28;20041;-60
2023/06/03 03:26:07;;;;;;;8.50;5.05;;;;;;;-148.23;100.00;56998.88;5056072;28;20053;-60
2023/06/03 03:28:35;;;;;;;9.90;5.53;;;;;;;-148.23;100.00;56998.88;5056161;28;20049;-60
2023/06/03 03:31:04;;;;;;;12.30;4.90;;;;;;;-148.23;100.00;56998.88;5056074;28;20057;-60
2023/06/03 03:33:31;;;;;;;8.27;4.30;;;;;;;-148.23;100.00;56998.88;5056029;28;20132;-60
2023/06/03 03:36:08;;;;;;;8.88;4.85;;;;;;;-148.23;100.00;56998.88;5055905;28;20551;-60
2023/06/03 03:38:36;;;;;;;8.65;4.50;;;;;;;-148.23;100.00;56998.88;5055966;28;20049;-60
2023/06/03 03:41:04;;;;;;;8.13;5.28;;;;;;;-148.23;100.00;56998.88;5055938;28;20040;-60
2023/06/03 03:43:33;;;;;;;6.32;4.63;;;;;;;-148.23;100.00;56998.88;5055833;28;20068;-60
2023/06/03 03:46:00;;;;;;;6.40;4.90;;;;;;;-148.23;100.00;56998.88;5055769;28;20055;-60
2023/06/03 03:48:30;;;;;;;9.25;5.03;;;;;;;-148.23;100.00;56998.88;5055770;28;20080;-60
2023/06/03 03:50:57;;;;;;;6.10;4.70;;;;;;;-148.23;100.00;56998.88;5055779;28;20056;-60
2023/06/03 03:53:29;;;;;;;8.77;5.18;;;;;;;-148.23;100.00;56998.88;5055640;28;20483;-60
2023/06/03 03:55:57;;;;;;;6.65;4.68;;;;;;;-148.23;100.00;56998.88;5055693;28;20052;-59
2023/06/03 03:58:27;;;;;;;7.70;4.57;;;;;;;-148.23;100.00;56998.88;5055654;28;20041;-60
2023/06/03 04:00:59;;;;;;;6.18;4.75;;;;;;;-148.23;100.00;56998.88;5055811;28;20049;-61
2023/06/03 04:03:27;;;;;;;10.73;4.57;;;;;;;-148.23;100.00;56998.88;5055636;28;20384;-60
2023/06/03 04:05:55;;;;;;;6.30;4.93;;;;;;;-148.23;100.00;56998.88;5055700;28;20132;-61
2023/06/03 04:08:40;;;;;;;5.10;4.60;;;;;;;-148.23;100.00;56998.88;5055368;28;20076;-61
2023/06/03 04:11:09;;;;;;;7.15;5.22;;;;;;;-148.23;100.00;56998.88;5055349;28;20076;-60
2023/06/03 04:13:40;;;;;;;6.63;4.53;;;;;;;-148.23;100.00;56998.88;5055632;28;20072;-61
2023/06/03 04:16:13;;;;;;;5.80;4.72;;;;;;;-148.23;100.00;56998.88;5055261;28;20053;-60
2023/06/03 04:18:42;;;;;;;6.82;4.15;;;;;;;-148.23;100.00;56998.88;5055217;28;20148;-60
2023/06/03 04:21:15;;;;;;;4.65;4.13;;;;;;;-148.23;100.00;56998.88;5055152;28;20502;-60
2023/06/03 04:23:43;;;;;;;4.97;4.03;;;;;;;-148.23;100.00;56998.88;5055166;28;20119;-60
2023/06/03 04:26:12;;;;;;;8.55;4.13;;;;;;;-148.23;100.00;56998.88;5055088;28;20103;-60
2023/06/03 04:28:40;;;;;;;7.68;4.63;;;;;;;-148.23;100.00;56998.88;5054981;28;20057;-61
2023/06/03 04:31:07;;;;;;;6.00;4.25;;;;;;;-148.23;100.00;56998.88;5055006;28;20049;-60
2023/06/03 04:33:36;;;;;;;7.55;4.43;;;;;;;-148.23;100.00;56998.88;5055128;28;20045;-60
2023/06/03 04:36:03;;;;;;;4.70;4.13;;;;;;;-148.23;100.00;56998.88;5054400;28;20048;-60
2023/06/03 04:38:31;;;;;;;6.90;3.83;;;;;;;-148.23;100.00;56998.88;5054873;28;20503;-60
2023/06/03 04:41:01;;;;;;;4.35;3.95;;;;;;;-148.23;100.00;56998.88;5054756;28;20084;-60
2023/06/03 04:43:29;;;;;;;8.25;4.78;;;;;;;-148.23;100.00;56998.88;5055076;28;20076;-60
2023/06/03 04:45:56;;;;;;;5.93;4.68;;;;;;;-148.23;100.00;56998.88;5054944;28;20070;-60
2023/06/03 04:48:25;;;;;;;6.95;4.72;;;;;;;-148.23;100.00;56998.88;5054814;28;20071;-61
2023/06/03 04:50:53;;;;;;;5.63;4.80;;;;;;;-148.23;100.00;56998.88;5054863;28;20048;-61
2023/06/03 04:53:21;;;;;;;5.22;4.55;;;;;;;-148.23;100.00;56998.88;5054587;28;20044;-60
2023/06/03 04:55:48;;;;;;;6.97;5.15;;;;;;;-148.23;100.00;56998.88;5054508;28;20483;-60
2023/06/03 04:58:18;;;;;;;5.97;4.35;;;;;;;-148.23;100.00;56998.88;5054511;28;20102;-61
2023/06/03 05:00:48;;;;;;;9.25;4.53;;;;;;;-148.23;100.00;56998.88;5054503;28;20122;-61
2023/06/03 05:03:17;;;;;;;10.70;4.25;;;;;;;-148.23;100.00;56998.88;5054358;28;20045;-61
2023/06/03 05:05:45;;;;;;;5.53;4.28;;;;;;;-148.23;100.00;56998.88;5054235;28;20711;-60
2023/06/03 05:08:15;;;;;;;7.28;4.60;;;;;;;-148.23;100.00;56998.88;5054257;28;20055;-60
2023/06/03 05:10:42;;;;;;;7.65;4.80;;;;;;;-148.23;100.00;56998.88;5054128;28;20148;-60
2023/06/03 05:13:09;;;;;;;6.95;4.15;;;;;;;-148.23;100.00;56998.88;5054039;28;20462;-60
2023/06/03 05:15:37;;;;;;;7.50;4.13;;;;;;;-148.23;100.00;56998.88;5054170;28;20049;-60
2023/06/03 05:18:04;;;;;;;7.15;4.63;;;;;;;-148.23;100.00;56998.88;5054238;28;20081;-61
2023/06/03 05:20:32;;;;;;;9.13;4.90;;;;;;;-148.23;100.00;56998.88;5053979;28;20049;-60
2023/06/03 05:22:59;;;;;;;6.07;4.80;;;;;;;-148.23;100.00;56998.88;5054045;28;20049;-60
2023/06/03 05:25:28;;;;;;;6.63;4.53;;;;;;;-148.23;100.00;56998.88;5053981;28;20056;-60
2023/06/03 05:27:56;;;;;;;6.97;4.65;;;;;;;-148.23;100.00;56998.88;5053900;28;20102;-61
2023/06/03 05:30:23;;;;;;;6.82;4.32;;;;;;;-148.23;100.00;56998.88;5053867;28;20080;-60
2023/06/03 05:32:50;;;;;;;7.80;5.18;;;;;;;-148.23;100.00;56998.88;5053836;28;20044;-60
2023/06/03 05:35:17;;;;;;;7.40;4.47;;;;;;;-148.23;100.00;56998.88;5054046;28;20478;-60
2023/06/03 05:37:44;;;;;;;10.82;4.78;;;;;;;-148.23;100.00;56998.88;5053692;28;20099;-60
2023/06/03 05:40:12;;;;;;;11.43;4.95;;;;;;;-148.23;100.00;56998.88;5053937;28;20128;-60
2023/06/03 05:42:40;;;;;;;8.13;4.20;;;;;;;-148.23;100.00;56998.88;5053718;28;20064;-61
2023/06/03 05:45:09;;;;;;;7.13;4.32;;;;;;;-148.23;100.00;56998.88;5053597;28;20041;-59
2023/06/03 05:47:36;;;;;;;7.55;4.43;;;;;;;-148.23;100.00;56998.88;5053449;28;20405;-60
2023/06/03 05:50:04;;;;;;;7.72;4.47;;;;;;;-148.23;100.00;56998.88;5053614;28;20045;-61
2023/06/03 05:52:31;;;;;;;10.05;4.43;;;;;;;-148.23;100.00;56998.88;5053435;28;20044;-60
2023/06/03 05:54:58;;;;;;;9.45;3.95;;;;;;;-148.23;100.00;56998.88;5053592;28;20088;-61
2023/06/03 05:57:25;;;;;;;7.32;4.55;;;;;;;-148.23;100.00;56998.88;5053381;28;20102;-61
2023/06/03 05:59:53;;;;;;;6.97;4.07;;;;;;;-148.23;100.00;56998.88;5053386;28;20088;-61
2023/06/03 06:02:21;;;;;;;4.70;3.88;;;;;;;-148.23;100.00;56998.88;5053367;28;20052;-61
2023/06/03 06:04:48;;;;;;;5.78;4.10;;;;;;;-148.23;100.00;56998.88;5053371;28;20111;-61
2023/06/03 06:07:15;;;;;;;6.53;4.35;;;;;;;-148.23;100.00;56998.88;5053157;28;20063;-61
2023/06/03 06:09:42;;;;;;;6.10;3.85;;;;;;;-148.23;100.00;56998.88;5053267;28;20091;-60
2023/06/03 06:12:09;;;;;;;4.88;4.03;;;;;;;-148.23;100.00;56998.88;5053061;28;20049;-61
2023/06/03 06:14:37;;;;;;;4.97;4.28;;;;;;;-148.23;100.00;56998.88;5053217;28;20059;-60
2023/06/03 06:17:06;;;;;;;7.88;3.95;;;;;;;-148.23;100.00;56998.88;5053247;28;20049;-60
2023/06/03 06:19:35;;;;;;;8.77;3.50;;;;;;;-148.23;100.00;56998.88;5053195;28;20048;-60
2023/06/03 06:22:03;;;;;;;6.80;3.47;;;;;;;-148.23;100.00;56998.88;5053162;28;20052;-59
2023/06/03 06:24:30;;;;;;;9.55;4.25;;;;;;;-148.23;100.00;56998.88;5053127;28;20430;-60
2023/06/03 06:26:57;;;;;;;4.35;3.75;;;;;;;-148.23;100.00;56998.88;5052973;28;20048;-59
2023/06/03 06:29:24;;;;;;;4.82;3.78;;;;;;;-148.23;100.00;56998.88;5052961;28;20041;-60
2023/06/03 06:31:52;;;;;;;11.55;4.15;;;;;;;-148.23;100.00;56998.88;5053017;28;20052;-60
2023/06/03 06:34:20;;;;;;;5.63;3.80;;;;;;;-148.23;100.00;56998.88;5052941;28;20449;-60
2023/06/03 06:36:51;;;;;;;7.45;3.55;;;;;;;-148.23;100.00;56998.88;5052863;28;20056;-60
2023/06/03 06:39:48;;;;;;;7.32;3.97;;;;;;;-148.23;100.00;56998.88;5052877;28;20059;-60
2023/06/03 06:42:25;;;;;;;12.98;3.83;;;;;;;-148.23;100.00;56998.88;5053124;28;20067;-59
2023/06/03 06:44:52;;;;;;;3.60;3.25;;;;;;;-148.23;100.00;56998.88;5052813;28;20049;-59
2023/06/03 06:47:23;;;;;;;7.95;3.72;;;;;;;-148.23;100.00;56998.88;5052899;28;20059;-59
2023/06/03 06:49:53;;;;;;;4.60;3.80;;;;;;;-148.23;100.00;56998.88;5052712;28;20049;-59
2023/06/03 06:52:21;;;;;;;8.60;3.70;;;;;;;-148.23;100.00;56998.88;5052727;28;20045;-59
2023/06/03 06:54:49;;;;;;;4.68;3.58;;;;;;;-148.23;100.00;56998.88;5051733;28;20282;-60
2023/06/03 06:57:22;;;;;;;6.65;3.78;;;;;;;-148.23;100.00;56998.88;5037833;28;20412;-60
2023/06/03 06:59:51;;;;;;;6.60;3.53;;;;;;;-148.23;100.00;56998.88;5050595;28;20419;-62
2023/06/03 07:02:19;;;;;;;4.38;3.30;;;;;;;-148.23;100.00;56998.88;5046037;28;20114;-61
2023/06/03 07:04:46;;;;;;;4.22;3.65;;;;;;;-148.23;100.00;56998.88;5056617;28;20048;-62
2023/06/03 07:07:15;;;;;;;6.93;3.45;;;;;;;-148.23;100.00;56998.88;5044047;28;20565;-63
2023/06/03 07:09:43;;;;;;;6.38;3.63;;;;;;;-148.23;100.00;56998.88;5036460;28;20488;-61
2023/06/03 07:12:11;;;;;;;4.28;3.30;;;;;;;-148.23;100.00;56998.88;5036272;28;20057;-62
2023/06/03 07:14:39;;;;;;;9.43;3.65;;;;;;;-148.23;100.00;56998.88;5036514;28;20095;-61
2023/06/03 07:17:06;;;;;;;3.88;3.20;;;;;;;-148.23;100.00;56998.88;5036476;28;20555;-65
2023/06/03 07:19:37;;;;;;;9.55;3.80;;;;;;;-148.23;100.00;56998.88;5037324;28;20129;-65
2023/06/03 07:22:06;;;;;;;14.85;2.97;;;;;;;-148.23;100.00;56998.88;5036380;28;20045;-66
2023/06/03 07:24:36;;;;;;;7.50;3.42;;;;;;;-148.23;100.00;56998.88;5036598;28;20088;-66
2023/06/03 07:27:07;;;;;;;6.47;3.38;;;;;;;-148.23;100.00;56998.88;5036191;28;20049;-66
2023/06/03 07:29:38;;;;;;;6.75;3.50;;;;;;;-148.23;100.00;56998.88;5054700;28;20041;-66
2023/06/03 07:32:07;;;;;;;5.20;3.60;;;;;;;-148.23;100.00;56998.88;5056098;28;20049;-65
2023/06/03 07:34:36;;;;;;;6.07;3.50;;;;;;;-148.23;100.00;56998.88;5055967;28;20407;-64
2023/06/03 07:37:08;;;;;;;5.00;3.70;;;;;;;-148.23;100.00;56998.88;5056026;28;20049;-65
2023/06/03 07:39:37;;;;;;;4.00;3.55;;;;;;;-148.23;100.00;56998.88;5055961;28;20053;-65
2023/06/03 07:42:12;;;;;;;6.00;3.08;;;;;;;-148.23;100.00;56998.88;5055961;28;20041;-64
2023/06/03 07:44:43;;;;;;;4.70;3.40;;;;;;;-148.23;100.00;56998.88;5038196;28;20407;-64
2023/06/03 07:47:12;;;;;;;4.45;3.58;;;;;;;-148.23;100.00;56998.88;5036100;28;20111;-67
2023/06/03 07:49:40;;;;;;;4.18;3.53;;;;;;;-148.23;100.00;56998.88;5035972;28;20061;-64
2023/06/03 07:52:08;;;;;;;5.03;3.83;;;;;;;-148.23;100.00;56998.88;5035894;28;20052;-65
2023/06/03 07:54:37;;;;;;;3.92;3.25;;;;;;;-148.23;100.00;56998.88;5048585;28;20507;-64
2023/06/03 07:57:05;;;;;;;4.63;3.85;;;;;;;-148.23;100.00;56998.88;5055688;28;20045;-64
2023/06/03 07:59:34;;;;;;;4.95;3.80;;;;;;;-148.23;100.00;56998.88;5055828;28;20063;-65
2023/06/03 08:02:01;;;;;;;5.47;3.72;;;;;;;-148.23;100.00;56998.88;5050677;28;20046;-66
2023/06/03 08:04:32;;;;;;;6.65;4.10;;;;;;;-148.23;100.00;56998.88;5035657;28;20128;-64
2023/06/03 08:07:02;;;;;;;4.18;3.30;;;;;;;-148.23;100.00;56998.88;5035472;28;20041;-65
2023/06/03 08:09:31;;;;;;;7.88;4.40;;;;;;;-148.23;100.00;56998.88;5035524;28;20050;-64
2023/06/03 08:12:02;;;;;;;4.80;3.30;;;;;;;-148.23;100.00;56998.88;5051011;28;20181;-64
2023/06/03 08:14:30;;;;;;;5.70;3.53;;;;;;;-148.23;100.00;56998.88;5055230;28;20133;-64
2023/06/03 08:17:03;;;;;;;5.63;3.60;;;;;;;-148.23;100.00;56998.88;5055326;28;20094;-65
2023/06/03 08:19:31;;;;;;;4.28;3.72;;;;;;;-148.23;100.00;56998.88;5055180;28;20045;-65
2023/06/03 08:21:58;;;;;;;8.18;3.15;;;;;;;-148.23;100.00;56998.88;5041788;28;20075;-64
2023/06/03 08:24:25;;;;;;;3.80;3.17;;;;;;;-148.23;100.00;56998.88;5035337;28;20045;-66
2023/06/03 08:26:54;;;;;;;6.43;4.10;;;;;;;-148.23;100.00;56998.88;5035097;28;20057;-65
2023/06/03 08:29:22;;;;;;;5.15;3.80;;;;;;;-148.23;100.00;56998.88;5035365;28;20054;-64
2023/06/03 08:31:49;;;;;;;4.65;3.60;;;;;;;-148.23;100.00;56998.88;5036043;28;20136;-66
2023/06/03 08:34:16;;;;;;;5.65;3.92;;;;;;;-148.23;100.00;56998.88;5035023;28;20049;-64
2023/06/03 08:36:44;;;;;;;6.75;3.72;;;;;;;-148.23;100.00;56998.88;5035017;28;20488;-65
2023/06/03 08:39:11;;;;;;;11.27;4.43;;;;;;;-148.23;100.00;56998.88;5048066;28;20053;-64
2023/06/03 08:41:41;;;;;;;3.60;3.28;;;;;;;-148.23;100.00;56998.88;5054837;28;21175;-65
2023/06/03 08:44:14;;;;;;;6.05;4.03;;;;;;;-148.23;100.00;56998.88;5054821;28;20541;-65
2023/06/03 08:46:52;;;;;;;7.82;3.75;;;;;;;-148.23;100.00;56998.88;5054513;28;20525;-64
2023/06/03 08:49:28;;;;;;;5.13;3.60;;;;;;;-148.23;100.00;56998.88;5042505;28;20049;-65
2023/06/03 08:51:57;;;;;;;5.78;3.67;;;;;;;-148.23;100.00;56998.88;5034762;28;20140;-65
2023/06/03 08:54:31;;;;;;;7.50;3.72;;;;;;;-148.23;100.00;56998.88;5034696;28;20050;-64
2023/06/03 08:57:05;;;;;;;5.85;4.10;;;;;;;-148.23;100.00;56998.88;5034563;28;20068;-65
2023/06/03 08:59:35;;;;;;;7.90;4.13;;;;;;;-148.23;100.00;56998.88;5044668;28;20049;-65
2023/06/03 09:02:06;;;;;;;8.23;3.97;;;;;;;-148.23;100.00;56998.88;5054504;28;20514;-64
2023/06/03 09:04:33;;;;;;;6.07;3.45;;;;;;;-148.23;100.00;56998.88;5054366;28;20290;-66
2023/06/03 09:07:03;;;;;;;6.68;4.13;;;;;;;-148.23;100.00;56998.88;5054198;28;20051;-64
2023/06/03 09:09:32;;;;;;;4.13;3.65;;;;;;;-148.23;100.00;56998.88;5046855;28;20041;-64
2023/06/03 09:12:01;;;;;;;5.15;3.60;;;;;;;-148.23;100.00;56998.88;5034170;28;20072;-65
2023/06/03 09:14:30;;;;;;;5.63;3.70;;;;;;;-148.23;100.00;56998.88;5034322;28;20045;-64
2023/06/03 09:16:58;;;;;;;5.30;3.75;;;;;;;-148.23;100.00;56998.88;5034275;28;20080;-66
2023/06/03 09:19:28;;;;;;;6.82;3.97;;;;;;;-148.23;100.00;56998.88;5052726;28;20059;-64
2023/06/03 09:21:56;;;;;;;5.28;3.95;;;;;;;-148.23;100.00;56998.88;5053726;28;20044;-65
2023/06/03 09:24:24;;;;;;;4.72;3.85;;;;;;;-148.23;100.00;56998.88;5053924;28;20080;-65
2023/06/03 09:26:51;;;;;;;5.45;3.75;;;;;;;-148.23;100.00;56998.88;5053983;28;20045;-64
2023/06/03 09:29:20;;;;;;;5.25;3.90;;;;;;;-148.23;100.00;56998.88;5047040;28;20040;-65
2023/06/03 09:31:48;;;;;;;5.57;3.90;;;;;;;-148.23;100.00;56998.88;5044302;28;20037;-65
2023/06/03 09:34:17;;;;;;;6.07;4.13;;;;;;;-148.23;100.00;56998.88;5033909;28;20053;-65
2023/06/03 09:36:47;;;;;;;7.43;4.55;;;;;;;-148.23;100.00;56998.88;5033892;28;20107;-64
2023/06/03 09:39:17;;;;;;;6.15;4.18;;;;;;;-148.23;100.00;56998.88;5034897;28;20132;-65
2023/06/03 09:41:47;;;;;;;6.75;4.43;;;;;;;-148.23;100.00;56998.88;5033898;28;20502;-65
2023/06/03 09:44:14;;;;;;;4.97;4.25;;;;;;;-148.23;100.00;56998.88;5033944;28;20080;-64
2023/06/03 09:46:50;;;;;;;10.70;4.28;;;;;;;-148.23;100.00;56998.88;5033632;28;20058;-65
2023/06/03 09:49:18;;;;;;;5.43;4.07;;;;;;;-148.23;100.00;56998.88;5037635;28;20514;-65
2023/06/03 09:51:49;;;;;;;4.72;4.15;;;;;;;-148.23;100.00;56998.88;5053594;28;20100;-65
2023/06/03 09:54:17;;;;;;;4.45;4.00;;;;;;;-148.23;100.00;56998.88;5053597;28;20055;-66
2023/06/03 09:56:46;;;;;;;7.43;4.28;;;;;;;-148.23;100.00;56998.88;5053419;28;20503;-65
2023/06/03 09:59:16;;;;;;;4.50;4.10;;;;;;;-148.23;100.00;56998.88;5051764;28;20131;-66
2023/06/03 10:01:45;;;;;;;5.70;4.40;;;;;;;-148.23;100.00;56998.88;5040797;28;20490;-65
2023/06/03 10:04:13;;;;;;;7.15;4.10;;;;;;;-148.23;100.00;56998.88;5053288;28;20130;-65
2023/06/03 10:06:40;;;;;;;6.57;4.20;;;;;;;-148.23;100.00;56998.88;5044172;28;20041;-66
2023/06/03 10:09:20;;;;;;;6.10;4.07;;;;;;;-148.23;100.00;56998.88;5033197;28;20057;-65
2023/06/03 10:11:49;;;;;;;5.13;3.95;;;;;;;-148.23;100.00;56998.88;5046080;28;20057;-64
2023/06/03 10:14:21;;;;;;;5.30;3.40;;;;;;;-148.23;100.00;56998.88;5032022;28;20045;-66
2023/06/03 10:17:03;;;;;;;4.13;3.72;;;;;;;-148.23;100.00;56998.88;5032058;28;20452;-66
2023/06/03 10:19:33;;;;;;;7.78;3.63;;;;;;;-148.23;100.00;56998.88;5032006;28;20050;-64
2023/06/03 10:22:00;;;;;;;4.33;3.63;;;;;;;-148.23;100.00;56998.88;5036032;28;20049;-65
2023/06/03 10:24:31;;;;;;;5.65;3.90;;;;;;;-148.23;100.00;56998.88;5051346;28;20044;-70
2023/06/03 10:26:58;;;;;;;5.05;4.18;;;;;;;-148.23;100.00;56998.88;5052763;28;20049;-60
2023/06/03 10:29:26;;;;;;;6.63;3.72;;;;;;;-148.23;100.00;56998.88;5052946;28;20049;-60
2023/06/03 10:31:54;;;;;;;4.07;3.42;;;;;;;-148.23;100.00;56998.88;5049638;28;20061;-59
2023/06/03 10:34:22;;;;;;;6.50;4.00;;;;;;;-148.23;100.00;56998.88;5032292;28;20134;-59
2023/06/03 10:36:53;;;;;;;6.28;3.63;;;;;;;-148.23;100.00;56998.88;5032939;28;20045;-60
2023/06/03 10:39:20;;;;;;;;;;;;;;;-148.23;100.00;56998.88;5033373;28;20411;-59
2023/06/03 10:41:49;;;;;;;4.80;3.95;;;;;;;-148.23;100.00;56998.88;5032943;28;19968;-59
2023/06/03 10:44:19;;;;;;;4.07;3.22;;;;;;;-148.23;100.00;56998.88;5041719;28;20085;-60
2023/06/03 10:46:55;;;;;;;5.97;3.58;;;;;;;-148.23;100.00;56998.88;5052557;28;20045;-59
2023/06/03 10:49:26;;;;;;;8.27;3.38;;;;;;;-148.23;100.00;56998.88;5050262;28;20052;-59
2023/06/03 10:52:00;;;;;;;;;;;;;;;-148.23;100.00;56998.88;5052041;28;20402;-61
2023/06/03 10:54:34;;;;;;;6.47;3.42;;;;;;;-148.23;100.00;56998.88;5034271;28;19943;-60
2023/06/03 10:57:08;;;;;;;7.38;3.70;;;;;;;-148.23;100.00;56998.88;5032852;28;20049;-61
2023/06/03 10:59:42;;;;;;;5.47;3.83;;;;;;;-148.23;100.00;56998.88;5032820;28;20053;-61
2023/06/03 11:02:09;;;;;;;3.75;3.33;;;;;;;-148.23;100.00;56998.88;5040681;28;20052;-60
2023/06/03 11:04:38;;;;;;;6.65;3.47;;;;;;;-148.23;100.00;56998.88;5052007;28;20037;-61
2023/06/03 11:07:06;;;;;;;4.03;3.08;;;;;;;-148.23;100.00;56998.88;5050921;28;20072;-60
2023/06/03 11:09:36;;;;;;;4.75;3.58;;;;;;;-148.23;100.00;56998.88;5052571;28;20053;-66
2023/06/03 11:12:13;;;;;;;3.42;3.13;;;;;;;-148.23;100.00;56998.88;5043998;28;20081;-65
2023/06/03 11:14:57;;;;;;;3.97;3.55;;;;;;;-148.23;100.00;56998.88;5032644;28;20140;-59
2023/06/03 11:17:25;;;;;;;4.25;3.30;;;;;;;-148.23;100.00;56998.88;5032545;28;20411;-64